Time;durP1;ratioP1;P1;durP2;ratioP2;P2;SDS_P1;SDS_P2;PMS_P1;PMS_P2;Temp;Humidity;BMP_temperature;BMP_pressure;BME280_temperature;BME280_humidity;BME280_pressure;Samples;Min_cycle;Max_cycle;Signal;HPM_P1;HPM_P2
2022/12/15 00:40:58;;;;;;;10.20;4.77;;;;;;;-4.81;100.00;101059.77;1773967;80;21092;-74
2022/12/15 00:43:29;;;;;;;9.27;4.33;;;;;;;-4.84;100.00;101048.45;1790579;80;21007;-73
2022/12/15 00:48:43;;;;;;;9.53;4.50;;;;;;;-4.83;100.00;101052.83;1794361;80;21029;-74
2022/12/15 00:51:10;;;;;;;9.00;4.30;;;;;;;-4.83;100.00;101047.08;1794480;80;21049;-74
2022/12/15 01:21:17;;;;;;;9.63;4.30;;;;;;;-4.66;100.00;101008.72;1773494;80;21526;-75
2022/12/15 01:23:44;;;;;;;10.20;4.47;;;;;;;-4.64;100.00;101009.53;1794403;78;21033;-74
2022/12/15 01:26:11;;;;;;;10.00;4.20;;;;;;;-4.65;100.00;100999.91;1794577;80;21013;-75
2022/12/15 01:28:38;;;;;;;8.33;4.30;;;;;;;-4.64;100.00;101001.18;1794468;79;21490;-74
2022/12/15 01:31:12;;;;;;;8.73;4.10;;;;;;;-4.63;100.00;101004.20;1794449;80;21000;-74
2022/12/15 01:33:41;;;;;;;9.40;4.40;;;;;;;-4.60;100.00;101000.16;1794263;80;21506;-74
2022/12/15 01:36:08;;;;;;;8.63;3.70;;;;;;;-4.58;100.00;101006.23;1794490;80;21017;-75
2022/12/15 01:38:35;;;;;;;11.13;4.57;;;;;;;-4.53;100.00;101006.53;1794475;80;21061;-75
2022/12/15 01:41:06;;;;;;;8.53;4.03;;;;;;;-4.51;100.00;101006.05;1794616;80;21021;-73
2022/12/15 01:43:36;;;;;;;10.57;4.47;;;;;;;-4.50;100.00;101004.65;1794547;80;21009;-73
2022/12/15 01:46:06;;;;;;;9.90;4.70;;;;;;;-4.50;100.00;101002.02;1794538;80;21482;-74
2022/12/15 01:48:48;;;;;;;9.23;4.00;;;;;;;-4.49;100.00;101008.17;1794452;80;21009;-75
2022/12/15 01:51:31;;;;;;;9.87;4.73;;;;;;;-4.49;100.00;101008.17;1794518;80;21064;-75
2022/12/15 01:54:09;;;;;;;9.87;4.30;;;;;;;-4.50;100.00;101006.44;1794148;80;21015;-75
2022/12/15 01:56:40;;;;;;;8.57;4.40;;;;;;;-4.50;100.00;101013.89;1794467;80;21017;-74
2022/12/15 01:59:10;;;;;;;9.90;4.63;;;;;;;-4.51;100.00;101008.69;1794212;80;21072;-73
2022/12/15 02:01:39;;;;;;;11.57;4.60;;;;;;;-4.50;100.00;101015.21;1794711;80;21520;-75
2022/12/15 02:04:06;;;;;;;11.47;4.53;;;;;;;-4.50;100.00;101017.85;1794473;80;21044;-74
2022/12/15 02:06:32;;;;;;;12.30;5.50;;;;;;;-4.51;100.00;101012.19;1794292;80;21029;-73
2022/12/15 02:08:59;;;;;;;8.70;4.50;;;;;;;-4.52;100.00;101003.84;1793621;80;21021;-74
2022/12/15 02:11:42;;;;;;;7.10;3.87;;;;;;;-4.51;100.00;101003.41;1790538;80;21093;-74
2022/12/15 02:14:11;;;;;;;10.08;4.20;;;;;;;-4.52;100.00;100995.92;1790915;80;21120;-75
2022/12/15 02:17:28;;;;;;;8.63;4.27;;;;;;;-4.51;100.00;100988.89;1790460;80;21108;-74
2022/12/15 02:20:27;;;;;;;8.37;3.93;;;;;;;-4.51;100.00;100980.97;1790815;80;21017;-73
2022/12/15 02:23:26;;;;;;;9.67;4.10;;;;;;;-4.50;100.00;100984.00;1790167;80;21498;-73
2022/12/15 02:26:27;;;;;;;9.70;4.33;;;;;;;-4.51;100.00;100977.86;1790702;80;21014;-74
2022/12/15 02:29:08;;;;;;;8.93;3.97;;;;;;;-4.51;100.00;100973.91;1790665;80;21048;-73
2022/12/15 02:31:49;;;;;;;10.33;4.93;;;;;;;-4.52;100.00;100980.09;1790738;80;21025;-74
2022/12/15 02:34:55;;;;;;;9.80;4.30;;;;;;;-4.50;100.00;100989.28;1790574;80;21033;-75
2022/12/15 02:37:33;;;;;;;8.10;4.00;;;;;;;-4.48;100.00;100995.37;1787491;80;21566;-74
2022/12/15 02:40:01;;;;;;;8.07;4.13;;;;;;;-4.46;100.00;100995.73;1790721;80;21001;-74
2022/12/15 02:42:29;;;;;;;10.23;4.77;;;;;;;-4.44;100.00;100997.01;1790700;80;21025;-74
2022/12/15 02:45:02;;;;;;;9.87;4.30;;;;;;;-4.41;100.00;100996.88;1790679;80;21518;-74
2022/12/15 02:48:08;;;;;;;9.50;5.03;;;;;;;-4.39;100.00;100985.37;1790911;79;21074;-75
2022/12/15 02:51:06;;;;;;;10.70;4.50;;;;;;;-4.37;100.00;100981.80;1780179;80;21095;-75
2022/12/15 02:53:42;;;;;;;14.33;5.47;;;;;;;-4.36;100.00;100963.27;1790933;80;21041;-74
2022/12/15 02:56:20;;;;;;;11.10;5.10;;;;;;;-4.35;100.00;100984.80;1790094;80;21495;-75
2022/12/15 02:59:21;;;;;;;10.10;4.83;;;;;;;-4.33;100.00;100976.37;1790590;80;21076;-74
2022/12/15 03:02:01;;;;;;;10.00;4.50;;;;;;;-4.31;100.00;100963.97;1790605;80;21033;-74
2022/12/15 03:04:32;;;;;;;11.10;4.97;;;;;;;-4.31;100.00;100953.41;1790884;79;21510;-74
2022/12/15 03:06:58;;;;;;;9.23;4.60;;;;;;;-4.30;100.00;100953.83;1790220;80;21026;-75
2022/12/15 03:09:25;;;;;;;12.63;5.47;;;;;;;-4.30;100.00;100945.02;1790827;80;21558;-75
2022/12/15 03:11:52;;;;;;;12.13;5.10;;;;;;;-4.29;100.00;100937.05;1790645;80;21065;-74
2022/12/15 03:14:19;;;;;;;11.50;4.50;;;;;;;-4.29;100.00;100939.69;1791011;80;21052;-75
2022/12/15 03:16:46;;;;;;;12.00;5.20;;;;;;;-4.28;100.00;100937.93;1790591;80;21057;-73
2022/12/15 03:19:13;;;;;;;9.30;4.83;;;;;;;-4.29;100.00;100934.41;1790925;80;21072;-72
2022/12/15 03:21:40;;;;;;;8.53;4.70;;;;;;;-4.27;100.00;100931.71;1790634;80;21001;-74
2022/12/15 03:24:08;;;;;;;15.60;6.00;;;;;;;-4.25;100.00;100933.40;1790970;80;21029;-76
2022/12/15 03:26:35;;;;;;;8.90;4.47;;;;;;;-4.21;100.00;100935.00;1790963;80;20970;-75
2022/12/15 03:29:02;;;;;;;10.97;4.20;;;;;;;-4.20;100.00;100926.17;1790814;80;21523;-74
2022/12/15 03:31:29;;;;;;;7.63;4.07;;;;;;;-4.17;100.00;100921.70;1790588;80;21063;-75
2022/12/15 03:33:56;;;;;;;10.83;4.80;;;;;;;-4.16;100.00;100924.28;1790963;80;20997;-74
2022/12/15 03:36:24;;;;;;;9.67;4.80;;;;;;;-4.13;100.00;100926.79;1790722;80;21064;-74
2022/12/15 03:38:50;;;;;;;9.87;4.87;;;;;;;-4.12;100.00;100923.25;1790912;80;21033;-74
2022/12/15 03:41:18;;;;;;;8.80;4.10;;;;;;;-4.11;100.00;100920.98;1790724;80;21033;-75
2022/12/15 03:43:47;;;;;;;7.97;4.70;;;;;;;-4.11;100.00;100909.09;1791119;80;21384;-75
2022/12/15 03:46:14;;;;;;;9.37;4.33;;;;;;;-4.09;100.00;100902.45;1790733;80;21558;-74
2022/12/15 03:48:41;;;;;;;9.03;4.63;;;;;;;-4.10;100.00;100900.27;1791212;80;21056;-74
2022/12/15 03:51:08;;;;;;;8.03;4.23;;;;;;;-4.08;100.00;100890.97;1790620;80;21029;-74
2022/12/15 03:53:35;;;;;;;9.43;4.50;;;;;;;-4.09;100.00;100886.16;1790995;80;21033;-75
2022/12/15 03:56:02;;;;;;;9.07;4.47;;;;;;;-4.07;100.00;100890.92;1790686;80;21553;-74
2022/12/15 03:58:30;;;;;;;9.63;4.40;;;;;;;-4.04;100.00;100890.81;1790922;80;21041;-74
2022/12/15 04:00:57;;;;;;;10.47;4.57;;;;;;;-4.05;100.00;100889.08;1790949;80;21065;-73
2022/12/15 04:03:24;;;;;;;12.00;4.60;;;;;;;-4.03;100.00;100881.95;1790968;80;21018;-75
2022/12/15 04:05:52;;;;;;;8.77;4.77;;;;;;;-4.02;100.00;100880.16;1790853;80;21081;-75
2022/12/15 04:08:25;;;;;;;10.43;4.47;;;;;;;-4.01;100.00;100880.58;1790797;80;21542;-74
2022/12/15 04:10:48;;;;;;;7.13;3.90;;;;;;;-3.99;100.00;100883.17;1792962;80;21037;-74
2022/12/15 04:13:16;;;;;;;9.20;4.40;;;;;;;-3.98;100.00;100873.87;1794745;80;21101;-74
2022/12/15 04:15:43;;;;;;;8.40;4.50;;;;;;;-3.97;100.00;100875.57;1794266;79;21072;-74
2022/12/15 04:18:10;;;;;;;10.63;4.83;;;;;;;-3.94;100.00;100874.61;1794495;80;21033;-75
2022/12/15 04:20:39;;;;;;;13.63;5.23;;;;;;;-3.93;100.00;100878.52;1794512;80;21033;-74
2022/12/15 04:23:06;;;;;;;15.07;5.80;;;;;;;-3.91;100.00;100891.20;1794440;79;21016;-74
2022/12/15 05:33:04;;;;;;;13.17;5.13;;;;;;;-3.63;100.00;100891.02;1794392;80;21036;-74
2022/12/15 05:35:34;;;;;;;11.70;5.17;;;;;;;-3.61;100.00;100889.64;1794577;80;21017;-74
2022/12/15 05:38:01;;;;;;;10.03;4.90;;;;;;;-3.60;100.00;100887.38;1794381;80;21021;-74
2022/12/15 05:40:28;;;;;;;15.03;5.17;;;;;;;-3.57;100.00;100889.91;1793497;80;21037;-75
2022/12/15 05:42:58;;;;;;;12.77;5.27;;;;;;;-3.55;100.00;100885.89;1794453;80;21533;-75
2022/12/15 05:45:27;;;;;;;10.70;4.80;;;;;;;-3.54;100.00;100889.80;1794305;80;21033;-74
2022/12/15 05:47:54;;;;;;;9.27;5.20;;;;;;;-3.52;100.00;100894.56;1794675;80;21435;-75
2022/12/15 05:50:55;;;;;;;9.63;4.33;;;;;;;-3.51;100.00;100899.38;1794683;80;21539;-74
2022/12/15 05:53:22;;;;;;;11.37;5.17;;;;;;;-3.48;100.00;100904.08;1794732;79;21160;-75
2022/12/15 05:55:51;;;;;;;10.03;4.47;;;;;;;-3.44;100.00;100905.67;1794733;80;21045;-76
2022/12/15 05:58:18;;;;;;;11.80;4.83;;;;;;;-3.40;100.00;100906.41;1786999;80;21013;-75
2022/12/15 06:00:45;;;;;;;11.00;5.03;;;;;;;-3.37;100.00;100914.23;1785109;80;21076;-75
2022/12/15 06:03:12;;;;;;;13.87;5.33;;;;;;;-3.32;100.00;100920.20;1794631;80;21064;-75
2022/12/15 06:05:40;;;;;;;14.07;5.83;;;;;;;-3.27;100.00;100916.06;1794460;80;21514;-73
2022/12/15 06:08:08;;;;;;;10.67;5.20;;;;;;;-3.23;100.00;100900.93;1794511;80;21018;-76
2022/12/15 06:10:35;;;;;;;12.33;5.20;;;;;;;-3.21;100.00;100906.55;1787937;80;21080;-76
2022/12/15 06:13:04;;;;;;;9.17;4.67;;;;;;;-3.19;100.00;100911.31;1770302;80;21014;-74
2022/12/15 06:15:31;;;;;;;13.00;5.20;;;;;;;-3.16;100.00;100908.55;1763493;80;21017;-74
2022/12/15 06:17:58;;;;;;;9.63;4.93;;;;;;;-3.13;100.00;100907.58;1781625;80;21436;-76
2022/12/15 06:20:26;;;;;;;9.60;4.80;;;;;;;-3.14;100.00;100909.34;1786991;80;21013;-76
2022/12/15 06:22:53;;;;;;;11.47;5.53;;;;;;;-3.10;100.00;100906.11;1789950;80;21048;-76
2022/12/15 06:25:22;;;;;;;12.70;5.83;;;;;;;-3.08;100.00;100911.75;1766707;80;21009;-75
2022/12/15 06:27:49;;;;;;;13.03;5.50;;;;;;;-3.07;100.00;100910.81;1774415;80;21013;-75
2022/12/15 06:30:18;;;;;;;12.63;5.97;;;;;;;-3.06;100.00;100905.94;1775330;80;21056;-76
2022/12/15 06:32:45;;;;;;;13.57;6.10;;;;;;;-3.02;100.00;100911.11;1777089;80;21013;-75
2022/12/15 06:35:12;;;;;;;13.80;6.03;;;;;;;-3.02;100.00;100913.28;1777591;80;21037;-76
2022/12/15 06:37:40;;;;;;;15.90;6.67;;;;;;;-3.01;100.00;100914.13;1781643;80;21029;-76
2022/12/15 06:40:12;;;;;;;12.97;6.03;;;;;;;-2.98;100.00;100912.69;1774353;80;21021;-74
2022/12/15 06:42:39;;;;;;;13.67;6.13;;;;;;;-2.95;100.00;100904.64;1782435;80;21506;-74
2022/12/15 06:45:10;;;;;;;20.13;8.50;;;;;;;-2.91;100.00;100894.31;1777037;80;21024;-78
2022/12/15 06:47:57;;;;;;;22.37;9.70;;;;;;;-2.88;100.00;100898.16;1774044;80;20986;-76
2022/12/15 06:50:25;;;;;;;14.80;7.13;;;;;;;-2.86;100.00;100893.19;1790550;80;21025;-76
2022/12/15 06:52:54;;;;;;;18.13;7.17;;;;;;;-2.82;100.00;100897.03;1788890;80;21061;-75
2022/12/15 06:55:21;;;;;;;16.03;6.90;;;;;;;-2.78;100.00;100906.56;1771056;80;21463;-76
2022/12/15 06:57:49;;;;;;;12.43;5.63;;;;;;;-2.73;100.00;100900.61;1791206;80;21056;-75
2022/12/15 07:00:17;;;;;;;16.00;6.83;;;;;;;-2.69;100.00;100890.31;1791622;80;21044;-75
2022/12/15 07:02:44;;;;;;;15.37;7.00;;;;;;;-2.65;100.00;100891.89;1791556;80;21011;-75
2022/12/15 07:05:13;;;;;;;19.37;8.37;;;;;;;-2.61;100.00;100893.94;1790737;80;21049;-77
2022/12/15 07:07:42;;;;;;;22.83;8.73;;;;;;;-2.58;100.00;100877.93;1789807;80;21054;-77
2022/12/15 07:10:11;;;;;;;26.47;10.60;;;;;;;-2.57;100.00;100868.56;1780034;80;21035;-78
2022/12/15 07:12:39;;;;;;;22.23;9.70;;;;;;;-2.53;100.00;100864.03;1774434;80;20928;-75
2022/12/15 07:26:41;;;;;;;;;;;;;;;-2.41;100.00;100838.77;1727293;83;21042;-78
2022/12/15 07:33:23;;;;;;;16.93;7.10;;;;;;;-2.44;100.00;100826.54;1724591;83;21132;-80
2022/12/15 07:35:53;;;;;;;17.77;8.53;;;;;;;-2.40;100.00;100812.22;1697464;85;21029;-79
2022/12/15 07:38:20;;;;;;;15.23;6.77;;;;;;;-2.39;100.00;100816.59;1699285;84;21014;-77
2022/12/15 07:40:48;;;;;;;14.93;6.93;;;;;;;-2.34;100.00;100813.72;1702292;83;21054;-74
2022/12/15 07:43:15;;;;;;;12.83;6.13;;;;;;;-2.31;100.00;100799.87;1722361;83;21035;-73
2022/12/15 07:45:42;;;;;;;18.20;8.27;;;;;;;-2.27;100.00;100791.79;1725616;82;21002;-75
2022/12/15 07:48:16;;;;;;;18.13;8.70;;;;;;;-2.22;100.00;100791.12;1726031;82;21049;-78
2022/12/15 07:51:43;;;;;;;16.63;8.23;;;;;;;-2.14;100.00;100794.28;1754213;82;21003;-75
2022/12/15 07:54:11;;;;;;;17.97;7.87;;;;;;;-2.07;100.00;100782.46;1753923;82;21030;-79
2022/12/15 07:56:40;;;;;;;13.17;6.37;;;;;;;-1.99;100.00;100772.34;1754223;82;21034;-75
2022/12/15 07:59:07;;;;;;;15.97;7.13;;;;;;;-1.94;100.00;100767.67;1753829;82;21009;-75
2022/12/15 08:01:37;;;;;;;14.30;5.87;;;;;;;-1.89;100.00;100767.47;1751578;82;20979;-73
2022/12/15 08:04:05;;;;;;;14.00;6.43;;;;;;;-1.83;100.00;100763.19;1724108;83;21046;-77
2022/12/15 08:07:29;;;;;;;12.93;6.07;;;;;;;-1.78;100.00;100755.02;1722146;83;21065;-75
2022/12/15 08:09:59;;;;;;;14.80;6.70;;;;;;;-1.76;100.00;100728.81;1729089;82;21071;-74
2022/12/15 08:12:27;;;;;;;13.60;6.43;;;;;;;-1.73;100.00;100727.34;1702313;84;21112;-75
2022/12/15 08:14:54;;;;;;;14.77;6.33;;;;;;;-1.73;100.00;100717.21;1733024;82;21057;-76
2022/12/15 08:17:23;;;;;;;13.57;6.27;;;;;;;-1.74;100.00;100713.67;1734878;82;21033;-74
2022/12/15 08:19:51;;;;;;;13.23;6.17;;;;;;;-1.72;100.00;100717.14;1738656;82;21499;-74
2022/12/15 08:22:21;;;;;;;13.33;6.10;;;;;;;-1.70;100.00;100705.10;1756206;81;20967;-74
2022/12/15 08:24:48;;;;;;;14.03;6.37;;;;;;;-1.70;100.00;100699.80;1755904;82;21022;-76
2022/12/15 08:27:15;;;;;;;18.37;8.13;;;;;;;-1.69;100.00;100688.27;1738419;82;21555;-75
2022/12/15 08:29:42;;;;;;;16.97;7.30;;;;;;;-1.70;100.00;100697.14;1738654;82;21570;-74
2022/12/15 08:32:13;;;;;;;11.80;5.60;;;;;;;-1.67;100.00;100699.66;1756814;82;21014;-76
2022/12/15 08:46:52;;;;;;;18.87;8.37;;;;;;;-1.56;100.00;100706.62;1701073;84;21526;-77
2022/12/15 08:49:21;;;;;;;22.07;9.93;;;;;;;-1.53;100.00;100711.75;1698967;84;21077;-75
2022/12/15 08:51:51;;;;;;;20.90;9.73;;;;;;;-1.49;100.00;100708.95;1701117;84;21119;-77
2022/12/15 08:54:19;;;;;;;18.00;8.07;;;;;;;-1.43;100.00;100708.66;1702098;83;21077;-74
2022/12/15 08:56:46;;;;;;;16.93;7.57;;;;;;;-1.39;100.00;100693.81;1701160;84;21097;-79
2022/12/15 08:59:14;;;;;;;16.23;7.43;;;;;;;-1.37;100.00;100679.14;1698789;84;21034;-75
2022/12/15 09:01:42;;;;;;;14.40;7.07;;;;;;;-1.37;100.00;100669.86;1700826;84;20998;-75
2022/12/15 09:04:09;;;;;;;14.93;6.97;;;;;;;-1.36;100.00;100660.98;1698655;84;21096;-77
2022/12/15 09:18:58;;;;;;;12.63;6.33;;;;;;;-1.26;100.00;100642.28;1682577;84;21022;-78
2022/12/15 09:21:28;;;;;;;16.93;8.10;;;;;;;-1.28;100.00;100634.03;1776629;80;21515;-69
2022/12/15 09:24:02;;;;;;;11.03;5.40;;;;;;;-1.30;100.00;100631.45;1745947;82;21495;-70
2022/12/15 09:30:36;;;;;;;13.50;5.87;;;;;;;-1.24;100.00;100633.80;1778447;79;21282;-78
2022/12/15 09:33:03;;;;;;;13.73;6.63;;;;;;;-1.20;100.00;100609.28;1753762;80;21023;-76
2022/12/15 09:35:33;;;;;;;16.27;7.23;;;;;;;-1.22;100.00;100604.50;1752035;81;20968;-76
2022/12/15 09:38:01;;;;;;;16.83;7.50;;;;;;;-1.22;100.00;100595.22;1750940;81;21103;-75
2022/12/15 09:40:28;;;;;;;15.60;7.30;;;;;;;-1.21;100.00;100586.33;1751115;82;21004;-73
2022/12/15 09:42:55;;;;;;;12.60;6.70;;;;;;;-1.19;100.00;100597.27;1746633;82;21538;-75
2022/12/15 09:45:48;;;;;;;14.07;7.13;;;;;;;-1.16;100.00;100593.09;1746670;81;21003;-79
2022/12/15 09:48:23;;;;;;;14.37;7.10;;;;;;;-1.11;100.00;100588.88;1746788;81;21045;-74
2022/12/15 09:50:56;;;;;;;16.60;7.33;;;;;;;-1.08;100.00;100572.80;1746191;82;21085;-75
2022/12/15 09:53:26;;;;;;;17.83;7.33;;;;;;;-1.05;100.00;100567.78;1746328;82;21077;-77
2022/12/15 09:55:58;;;;;;;17.83;7.60;;;;;;;-1.01;100.00;100556.04;1746598;82;21029;-76
2022/12/15 09:59:01;;;;;;;14.97;7.00;;;;;;;-0.98;100.00;100547.91;1746636;82;21077;-75
2022/12/15 10:01:41;;;;;;;16.48;6.92;;;;;;;-0.97;100.00;100529.73;1746818;82;22212;-76
2022/12/15 10:04:44;;;;;;;15.43;7.10;;;;;;;-0.92;100.00;100518.39;1743541;82;21488;-76
2022/12/15 10:07:23;;;;;;;15.30;7.62;;;;;;;-0.90;100.00;100499.24;1722779;83;21053;-76
2022/12/15 10:09:51;;;;;;;19.13;9.10;;;;;;;-0.87;100.00;100496.88;1740753;82;21122;-76
2022/12/15 10:12:24;;;;;;;15.70;8.07;;;;;;;-0.86;100.00;100502.10;1747466;82;20986;-75
2022/12/15 10:15:18;;;;;;;16.73;7.90;;;;;;;-0.83;100.00;100501.94;1747131;82;21047;-72
2022/12/15 10:18:17;;;;;;;16.33;7.67;;;;;;;-0.79;100.00;100504.79;1747492;82;21030;-77
2022/12/15 10:20:45;;;;;;;14.27;7.43;;;;;;;-0.77;100.00;100516.17;1751574;82;21036;-75
2022/12/15 10:23:17;;;;;;;14.97;6.90;;;;;;;-0.74;100.00;100514.28;1751832;82;21523;-77
2022/12/15 10:25:52;;;;;;;13.07;6.30;;;;;;;-0.72;100.00;100511.09;1751313;81;21037;-74
2022/12/15 10:29:00;;;;;;;17.30;8.00;;;;;;;-0.70;100.00;100515.36;1737908;82;21033;-76
2022/12/15 10:32:04;;;;;;;16.07;7.80;;;;;;;-0.72;100.00;100509.77;1761791;80;21041;-76
2022/12/15 10:34:37;;;;;;;13.23;6.67;;;;;;;-0.75;100.00;100506.80;1782330;79;21436;-77
2022/12/15 10:37:07;;;;;;;14.30;6.20;;;;;;;-0.74;100.00;100503.21;1782455;80;21088;-72
2022/12/15 10:39:39;;;;;;;12.50;5.73;;;;;;;-0.75;100.00;100505.95;1777923;79;21025;-75
2022/12/15 10:42:22;;;;;;;16.20;6.87;;;;;;;-0.77;100.00;100502.05;1767270;80;21507;-75
2022/12/15 10:44:56;;;;;;;15.00;6.83;;;;;;;-0.78;100.00;100498.55;1782100;79;21018;-76
2022/12/15 10:47:25;;;;;;;;;;;;;;;-0.77;100.00;100504.70;1785050;80;21006;-76
2022/12/15 10:49:54;;;;;;;15.37;6.67;;;;;;;-0.77;100.00;100488.30;1782703;80;20131;-76
2022/12/15 10:52:35;;;;;;;14.97;6.87;;;;;;;-0.74;100.00;100494.37;1782444;80;21121;-78
2022/12/15 10:55:09;;;;;;;14.90;6.57;;;;;;;-0.74;100.00;100493.03;1782418;80;21021;-77
2022/12/15 10:57:36;;;;;;;14.87;7.07;;;;;;;-0.75;100.00;100481.57;1776545;80;21021;-77
2022/12/15 11:00:18;;;;;;;14.03;6.50;;;;;;;-0.74;100.00;100484.63;1782828;80;21041;-75
2022/12/15 11:02:46;;;;;;;15.27;6.83;;;;;;;-0.73;100.00;100495.61;1782393;79;21045;-78
2022/12/15 11:05:16;;;;;;;17.40;7.33;;;;;;;-0.72;100.00;100505.30;1782669;80;21029;-77
2022/12/15 11:07:47;;;;;;;18.43;7.47;;;;;;;-0.69;100.00;100497.62;1782416;80;21538;-75
2022/12/15 11:12:50;;;;;;;13.67;7.07;;;;;;;-0.69;100.00;100506.91;1782366;80;21029;-78
2022/12/15 11:13:14;;;;;;;16.20;6.87;;;;;;;-0.70;100.00;100490.61;1748111;80;21017;-76
2022/12/15 11:15:50;;;;;;;12.30;6.40;;;;;;;-0.70;100.00;100486.62;1782531;80;21024;-79
2022/12/15 11:18:41;;;;;;;13.20;5.67;;;;;;;-0.70;100.00;100502.08;1782358;80;21041;-76
2022/12/15 11:21:31;;;;;;;12.67;5.73;;;;;;;-0.67;100.00;100510.36;1782342;80;21081;-78
2022/12/15 11:24:15;;;;;;;17.43;6.90;;;;;;;-0.64;100.00;100511.49;1782724;80;20986;-74
2022/12/15 11:27:18;;;;;;;11.47;5.80;;;;;;;-0.59;100.00;100513.42;1752891;80;21077;-76
2022/12/15 11:30:16;;;;;;;15.70;5.93;;;;;;;-0.58;100.00;100504.52;1743041;82;21694;-76
2022/12/15 11:32:52;;;;;;;13.97;6.37;;;;;;;-0.60;100.00;100489.15;1706852;82;21030;-77
2022/12/15 11:35:23;;;;;;;10.73;6.00;;;;;;;-0.61;100.00;100487.42;1762851;80;21030;-77
2022/12/15 11:38:07;;;;;;;14.67;6.43;;;;;;;-0.62;100.00;100512.26;1782537;80;21073;-76
2022/12/15 11:40:40;;;;;;;13.97;6.77;;;;;;;-0.60;100.00;100521.02;1781523;80;21089;-76
2022/12/15 11:44:02;;;;;;;13.83;7.37;;;;;;;-0.58;100.00;100512.48;1782359;80;21031;-78
2022/12/15 11:46:37;;;;;;;14.30;6.20;;;;;;;-0.57;100.00;100511.53;1782003;80;21049;-79
2022/12/15 11:49:27;;;;;;;11.83;5.47;;;;;;;-0.58;100.00;100518.64;1779425;80;21081;-76
2022/12/15 11:52:35;;;;;;;15.57;6.43;;;;;;;-0.55;100.00;100528.70;1782158;80;21049;-76
2022/12/15 11:55:26;;;;;;;21.60;7.80;;;;;;;-0.51;100.00;100519.16;1783029;80;21038;-76
2022/12/15 11:58:20;;;;;;;18.73;7.50;;;;;;;-0.51;100.00;100505.00;1782678;80;21065;-76
2022/12/15 12:01:22;;;;;;;17.42;7.33;;;;;;;-0.53;100.00;100522.38;1783443;80;21021;-76
2022/12/15 12:04:16;;;;;;;16.37;7.10;;;;;;;-0.51;100.00;100503.67;1782908;80;21054;-76
2022/12/15 12:07:10;;;;;;;14.83;7.13;;;;;;;-0.52;100.00;100505.95;1783018;80;21006;-77
2022/12/15 12:10:05;;;;;;;21.10;10.57;;;;;;;-0.53;100.00;100514.41;1782713;80;21531;-77
2022/12/15 12:13:05;;;;;;;22.07;10.20;;;;;;;-0.52;100.00;100502.82;1768797;80;21040;-77
2022/12/15 12:16:11;;;;;;;27.07;11.33;;;;;;;-0.49;100.00;100508.45;1782178;80;21213;-76
2022/12/15 12:18:43;;;;;;;15.40;7.83;;;;;;;-0.49;100.00;100526.56;1778018;80;21062;-75
2022/12/15 12:21:14;;;;;;;21.67;9.50;;;;;;;-0.46;100.00;100529.50;1771430;81;20999;-76
2022/12/15 12:24:10;;;;;;;16.63;7.20;;;;;;;-0.45;100.00;100537.87;1772052;81;21002;-76
2022/12/15 12:26:45;;;;;;;17.80;7.63;;;;;;;-0.45;100.00;100525.91;1771673;81;21042;-76
2022/12/15 12:29:34;;;;;;;29.13;11.17;;;;;;;-0.46;100.00;100515.77;1771578;80;21014;-75
2022/12/15 12:32:18;;;;;;;21.93;11.73;;;;;;;-0.45;100.00;100543.18;1755104;81;21078;-76
2022/12/15 12:35:32;;;;;;;19.00;9.40;;;;;;;-0.48;100.00;100548.21;1706131;84;21011;-75
2022/12/15 12:38:06;;;;;;;14.80;7.73;;;;;;;-0.49;100.00;100533.20;1681886;85;21170;-75
2022/12/15 12:40:45;;;;;;;17.10;7.00;;;;;;;-0.48;100.00;100546.89;1740713;82;21479;-74
2022/12/15 12:43:34;;;;;;;22.20;9.83;;;;;;;-0.47;100.00;100540.61;1715565;82;21491;-75
2022/12/15 12:46:10;;;;;;;20.17;10.07;;;;;;;-0.41;100.00;100542.05;1768523;81;21045;-76
2022/12/15 12:48:41;;;;;;;21.80;11.50;;;;;;;-0.39;100.00;100544.14;1760077;81;21030;-74
2022/12/15 12:51:35;;;;;;;22.75;11.80;;;;;;;-0.39;100.00;100537.05;1763260;81;21022;-78
2022/12/15 12:54:04;;;;;;;;;;;;;;;-0.37;100.00;100546.27;1772831;81;21034;-78
2022/12/15 12:56:43;;;;;;;17.00;7.87;;;;;;;-0.37;100.00;100540.95;1749120;81;20198;-75
2022/12/15 12:59:30;;;;;;;15.80;7.50;;;;;;;-0.39;100.00;100541.48;1771344;81;21018;-76
2022/12/15 13:02:23;;;;;;;16.53;7.40;;;;;;;-0.37;100.00;100544.05;1764295;81;21038;-77
2022/12/15 13:05:00;;;;;;;15.80;7.03;;;;;;;-0.38;100.00;100540.55;1747910;81;21547;-79
2022/12/15 13:07:31;;;;;;;15.50;7.30;;;;;;;-0.39;100.00;100532.19;1771870;81;21042;-79
2022/12/15 13:10:08;;;;;;;17.13;8.10;;;;;;;-0.40;100.00;100544.63;1771424;80;20978;-74
2022/12/15 13:13:00;;;;;;;16.67;8.57;;;;;;;-0.41;100.00;100530.09;1771878;81;21039;-77
2022/12/15 13:15:36;;;;;;;15.57;7.07;;;;;;;-0.42;100.00;100521.76;1770586;81;21087;-75
2022/12/15 13:18:21;;;;;;;16.83;7.10;;;;;;;-0.45;100.00;100516.13;1772283;80;21455;-75
2022/12/15 13:20:53;;;;;;;15.97;6.90;;;;;;;-0.47;100.00;100511.86;1781975;80;21065;-76
2022/12/15 13:23:28;;;;;;;18.73;7.83;;;;;;;-0.52;100.00;100502.82;1752411;80;21002;-75
2022/12/15 13:26:04;;;;;;;18.60;7.60;;;;;;;-0.56;100.00;100499.13;1751910;82;21037;-75
2022/12/15 13:28:43;;;;;;;19.57;8.53;;;;;;;-0.59;100.00;100499.66;1751899;82;20947;-75
2022/12/15 13:31:22;;;;;;;19.87;9.03;;;;;;;-0.62;100.00;100489.23;1751109;82;20986;-74
2022/12/15 13:33:55;;;;;;;15.93;7.90;;;;;;;-0.63;100.00;100494.14;1752013;82;21574;-74
2022/12/15 13:36:42;;;;;;;16.23;7.47;;;;;;;-0.64;100.00;100498.22;1752162;82;21065;-74
2022/12/15 13:39:21;;;;;;;15.40;6.90;;;;;;;-0.63;100.00;100493.30;1751811;82;21045;-75
2022/12/15 13:41:54;;;;;;;17.90;7.30;;;;;;;-0.64;100.00;100499.09;1762472;80;21471;-75
2022/12/15 13:44:38;;;;;;;16.30;7.22;;;;;;;-0.63;100.00;100492.82;1770221;80;21018;-74
2022/12/15 13:47:13;;;;;;;16.40;7.63;;;;;;;-0.63;100.00;100484.84;1782676;80;21065;-76
2022/12/15 13:49:50;;;;;;;17.70;7.73;;;;;;;-0.62;100.00;100489.68;1782955;80;21001;-74
2022/12/15 13:52:26;;;;;;;14.97;7.17;;;;;;;-0.62;100.00;100482.59;1781524;80;21053;-74
2022/12/15 13:55:06;;;;;;;17.97;7.63;;;;;;;-0.61;100.00;100484.77;1776252;80;21014;-75
2022/12/15 13:57:56;;;;;;;23.67;10.87;;;;;;;-0.61;100.00;100476.31;1762291;80;21491;-75
2022/12/15 14:00:25;;;;;;;23.53;9.53;;;;;;;-0.58;100.00;100472.64;1767734;80;21010;-75
2022/12/15 14:03:10;;;;;;;16.57;7.53;;;;;;;-0.56;100.00;100464.11;1767222;80;21088;-77
2022/12/15 14:05:40;;;;;;;22.00;9.30;;;;;;;-0.56;100.00;100463.27;1750405;82;21092;-74
2022/12/15 14:08:11;;;;;;;18.73;8.03;;;;;;;-0.57;100.00;100467.70;1751603;82;21076;-75
2022/12/15 14:25:36;;;;;;;16.47;8.50;;;;;;;-0.21;100.00;100484.61;1842066;77;22943;-69
2022/12/15 14:28:03;;;;;;;20.10;9.20;;;;;;;-0.21;100.00;100466.49;1797557;80;21018;-68
2022/12/15 14:30:31;;;;;;;15.87;7.77;;;;;;;-0.23;100.00;100454.63;1795364;79;21005;-68
2022/12/15 14:33:14;;;;;;;20.00;8.20;;;;;;;-0.25;100.00;100460.95;1795614;79;20971;-68
2022/12/15 14:35:46;;;;;;;18.50;7.67;;;;;;;-0.29;100.00;100464.75;1795023;80;20952;-67
2022/12/15 14:38:23;;;;;;;15.20;6.25;;;;;;;-0.33;100.00;100473.86;1796014;79;20949;-68
2022/12/15 14:40:52;;;;;;;18.47;7.03;;;;;;;-0.32;100.00;100479.09;1795856;79;21501;-68
2022/12/15 14:43:26;;;;;;;16.67;7.57;;;;;;;-0.32;100.00;100495.03;1796038;80;20958;-66
2022/12/15 14:45:58;;;;;;;18.90;7.70;;;;;;;-0.32;100.00;100489.72;1795752;80;20941;-68
2022/12/15 14:48:32;;;;;;;17.30;7.20;;;;;;;-0.29;100.00;100501.48;1792721;79;21460;-68
2022/12/15 14:51:02;;;;;;;16.80;7.73;;;;;;;-0.26;100.00;100497.80;1795621;80;21304;-68
2022/12/15 14:53:33;;;;;;;16.00;7.13;;;;;;;-0.25;100.00;100491.07;1795635;80;21037;-68
2022/12/15 14:56:23;;;;;;;21.70;9.07;;;;;;;-0.21;100.00;100499.72;1793422;80;21512;-74
2022/12/15 14:59:05;;;;;;;19.57;8.17;;;;;;;-0.21;100.00;100500.56;1795877;80;21020;-74
2022/12/15 15:01:40;;;;;;;17.23;7.87;;;;;;;-0.21;100.00;100499.72;1795712;80;21002;-75
2022/12/15 15:04:27;;;;;;;19.30;8.37;;;;;;;-0.24;100.00;100503.88;1795661;79;21000;-75
2022/12/15 15:06:55;;;;;;;16.27;7.83;;;;;;;-0.27;100.00;100493.42;1754159;81;20974;-76